createdAt,value
2019-02-27T00:01:58.701Z,2.53
2019-02-27T00:04:27.726Z,3.00
2019-02-27T00:06:56.715Z,2.23
2019-02-27T00:09:25.551Z,2.20
2019-02-27T00:11:54.529Z,2.83
2019-02-27T00:14:23.456Z,2.90
2019-02-27T00:16:52.387Z,3.60
2019-02-27T00:19:21.405Z,2.60
2019-02-27T00:21:50.365Z,4.60
2019-02-27T00:24:19.330Z,2.50
2019-02-27T00:26:48.501Z,2.73
2019-02-27T00:29:17.506Z,3.13
2019-02-27T00:31:46.458Z,2.57
2019-02-27T00:34:15.366Z,2.10
2019-02-27T00:36:45.093Z,2.60
2019-02-27T00:39:14.907Z,2.90
2019-02-27T00:41:46.070Z,2.50
2019-02-27T00:44:14.603Z,3.33
2019-02-27T00:46:43.955Z,2.47
2019-02-27T00:49:14.321Z,2.00
2019-02-27T00:51:44.890Z,3.10
2019-02-27T00:54:14.353Z,2.53
2019-02-27T00:56:45.133Z,2.33
2019-02-27T00:59:14.029Z,2.70
2019-02-27T01:01:47.259Z,2.20
2019-02-27T01:04:13.750Z,2.13
2019-02-27T01:06:45.020Z,3.00
2019-02-27T01:09:13.426Z,2.80
2019-02-27T01:11:42.310Z,2.70
2019-02-27T01:14:11.227Z,2.20
2019-02-27T01:16:40.146Z,2.20
2019-02-27T01:19:09.118Z,2.30
2019-02-27T01:21:38.098Z,2.50
2019-02-27T01:24:07.095Z,2.23
2019-02-27T01:26:36.906Z,2.13
2019-02-27T01:29:05.915Z,2.10
2019-02-27T01:31:34.945Z,2.43
2019-02-27T01:34:04.162Z,2.80
2019-02-27T01:36:33.096Z,3.20
2019-02-27T01:39:02.055Z,2.63
2019-02-27T01:41:30.986Z,2.23
2019-02-27T01:43:59.838Z,2.60
2019-02-27T01:46:28.835Z,2.90
2019-02-27T01:48:57.816Z,2.53
2019-02-27T01:51:28.337Z,2.60
2019-02-27T01:53:57.543Z,2.07
2019-02-27T01:56:28.865Z,1.90
2019-02-27T01:58:57.045Z,1.83
2019-02-27T02:01:29.853Z,2.40
2019-02-27T02:03:56.769Z,1.70
2019-02-27T02:06:25.691Z,1.70
2019-02-27T02:09:30.866Z,1.93
2019-02-27T02:12:00.317Z,1.80
2019-02-27T02:14:47.815Z,1.60
2019-02-27T02:18:25.482Z,2.03
2019-02-27T02:21:32.038Z,1.73
2019-02-27T02:24:37.139Z,1.70
2019-02-27T02:27:27.631Z,2.13
2019-02-27T02:30:38.426Z,1.93
2019-02-27T02:33:49.612Z,2.23
2019-02-27T02:36:46.217Z,2.63
2019-02-27T02:39:58.424Z,1.63
2019-02-27T02:43:17.783Z,1.50
2019-02-27T02:46:09.643Z,2.00
2019-02-27T02:49:09.794Z,1.53
2019-02-27T02:52:05.626Z,1.90
2019-02-27T02:55:21.751Z,1.43
2019-02-27T02:58:01.734Z,1.40
2019-02-27T03:00:58.481Z,1.90
2019-02-27T03:03:36.999Z,1.90
2019-02-27T03:06:43.951Z,1.90
2019-02-27T03:10:00.385Z,1.67
2019-02-27T03:12:58.701Z,1.83
2019-02-27T03:15:51.259Z,1.20
2019-02-27T03:19:05.042Z,1.57
2019-02-27T03:22:12.717Z,1.53
2019-02-27T03:25:13.854Z,1.93
2019-02-27T03:28:21.023Z,1.47
2019-02-27T03:31:32.275Z,1.47
2019-02-27T03:34:50.398Z,1.87
2019-02-27T03:38:02.662Z,1.23
2019-02-27T03:41:12.037Z,1.77
2019-02-27T03:44:20.700Z,1.63
2019-02-27T03:47:22.666Z,1.27
2019-02-27T03:50:32.122Z,1.30
2019-02-27T03:53:47.152Z,1.20
2019-02-27T03:57:08.732Z,1.70
2019-02-27T04:00:20.562Z,1.43
2019-02-27T04:03:23.283Z,1.20
2019-02-27T04:06:32.800Z,1.93
2019-02-27T04:09:02.019Z,1.40
2019-02-27T04:11:31.051Z,1.80
2019-02-27T04:14:04.789Z,1.50
2019-02-27T04:16:31.800Z,1.10
2019-02-27T04:19:04.581Z,1.20
2019-02-27T04:21:31.521Z,1.73
2019-02-27T04:24:00.429Z,1.80
2019-02-27T04:26:29.287Z,1.33
2019-02-27T04:29:04.038Z,1.20
2019-02-27T04:31:30.752Z,18.53
2019-02-27T04:34:00.896Z,3.23
2019-02-27T04:36:30.270Z,2.60
2019-02-27T04:39:00.029Z,2.20
2019-02-27T04:41:29.830Z,8.37
2019-02-27T04:43:58.818Z,2.40
2019-02-27T04:46:27.745Z,4.90
2019-02-27T04:48:56.737Z,2.40
2019-02-27T04:51:25.690Z,1.77
2019-02-27T04:53:54.606Z,3.90
2019-02-27T04:56:23.889Z,1.60
2019-02-27T04:58:52.858Z,2.67
2019-02-27T05:01:21.854Z,5.80
2019-02-27T05:03:50.778Z,4.33
2019-02-27T05:06:19.824Z,2.30
2019-02-27T05:08:49.095Z,1.40
2019-02-27T05:11:17.936Z,1.80
2019-02-27T05:13:46.806Z,1.53
2019-02-27T05:16:15.649Z,1.50
2019-02-27T05:18:44.509Z,1.40
2019-02-27T05:21:13.369Z,1.90
2019-02-27T05:23:42.309Z,1.40
2019-02-27T05:26:11.154Z,1.03
2019-02-27T05:28:40.091Z,1.40
2019-02-27T05:31:09.093Z,1.07
2019-02-27T05:33:39.855Z,1.67
2019-02-27T05:36:08.977Z,1.20
2019-02-27T05:38:37.986Z,1.50
2019-02-27T05:41:07.091Z,1.33
2019-02-27T05:43:36.025Z,3.37
2019-02-27T05:46:05.028Z,3.10
2019-02-27T05:48:33.866Z,3.53
2019-02-27T05:51:04.919Z,1.80
2019-02-27T05:53:33.391Z,1.97
2019-02-27T05:56:02.386Z,3.37
2019-02-27T05:58:31.416Z,2.20
2019-02-27T06:01:02.101Z,3.93
2019-02-27T06:03:30.893Z,8.70
2019-02-27T06:05:59.829Z,9.50
2019-02-27T06:08:29.005Z,2.87
2019-02-27T06:10:57.938Z,4.20
2019-02-27T06:13:26.884Z,3.87
2019-02-27T06:15:55.743Z,1.77
2019-02-27T06:18:24.643Z,2.50
2019-02-27T06:20:53.538Z,2.47
2019-02-27T06:23:22.763Z,4.90
2019-02-27T06:25:51.764Z,1.70
2019-02-27T06:28:21.092Z,2.93
2019-02-27T06:30:50.017Z,1.40
2019-02-27T06:33:19.246Z,4.70
2019-02-27T06:35:49.428Z,2.50
2019-02-27T06:38:18.469Z,2.00
2019-02-27T06:40:47.458Z,1.67
2019-02-27T06:43:16.567Z,2.00
2019-02-27T06:45:46.524Z,2.73
2019-02-27T06:48:15.718Z,3.90
2019-02-27T06:50:44.668Z,2.23
2019-02-27T06:53:16.397Z,2.27
2019-02-27T06:55:44.348Z,1.30
2019-02-27T06:58:14.847Z,2.40
2019-02-27T07:00:44.037Z,1.60
2019-02-27T07:03:12.978Z,1.73
2019-02-27T07:05:41.999Z,1.87
2019-02-27T07:08:10.913Z,1.70
2019-02-27T07:10:39.918Z,1.70
2019-02-27T07:13:08.928Z,1.53
2019-02-27T07:15:37.990Z,1.40
2019-02-27T07:18:07.001Z,1.97
2019-02-27T07:20:36.082Z,2.40
2019-02-27T07:23:05.350Z,1.83
2019-02-27T07:25:34.339Z,2.10
2019-02-27T07:28:03.581Z,1.90
2019-02-27T07:30:32.738Z,2.00
2019-02-27T07:33:03.736Z,4.10
2019-02-27T07:35:32.401Z,3.00
2019-02-27T07:38:01.402Z,2.50
2019-02-27T07:40:30.414Z,2.70
2019-02-27T07:42:59.381Z,2.03
2019-02-27T07:45:28.347Z,2.47
2019-02-27T07:47:57.361Z,3.00
2019-02-27T07:50:26.379Z,2.10
2019-02-27T07:52:55.394Z,2.60
2019-02-27T07:55:26.102Z,3.63
2019-02-27T07:57:58.468Z,3.50
2019-02-27T08:00:26.519Z,3.70
2019-02-27T08:02:56.622Z,3.83
2019-02-27T08:05:29.043Z,3.23
2019-02-27T08:07:59.410Z,2.70
2019-02-27T08:10:31.663Z,3.73
2019-02-27T08:13:05.869Z,3.60
2019-02-27T08:15:40.081Z,3.20
2019-02-27T08:18:29.995Z,2.60
2019-02-27T08:20:54.533Z,1.80
2019-02-27T08:23:24.087Z,2.10
2019-02-27T08:25:53.098Z,1.90
2019-02-27T08:28:22.130Z,2.90
2019-02-27T08:30:51.121Z,4.27
2019-02-27T08:33:20.050Z,4.27
2019-02-27T08:35:49.093Z,3.33
2019-02-27T08:38:17.953Z,2.50
2019-02-27T08:40:46.963Z,2.83
2019-02-27T08:43:15.938Z,3.43
2019-02-27T08:45:44.940Z,3.30
2019-02-27T08:48:17.112Z,2.80
2019-02-27T08:50:44.951Z,2.93
2019-02-27T08:53:13.866Z,2.63
2019-02-27T08:55:43.899Z,3.20
2019-02-27T08:58:12.818Z,4.20
2019-02-27T09:00:42.048Z,3.10
2019-02-27T09:03:20.054Z,2.47
2019-02-27T09:05:42.210Z,3.30
2019-02-27T09:08:11.206Z,2.77
2019-02-27T09:10:40.200Z,3.00
2019-02-27T09:13:09.273Z,3.10
2019-02-27T09:15:38.202Z,2.77
2019-02-27T09:18:07.137Z,3.00
2019-02-27T09:20:36.429Z,16.83
2019-02-27T09:23:05.733Z,5.10
2019-02-27T09:25:34.723Z,7.43
2019-02-27T09:28:09.014Z,3.00
2019-02-27T09:30:34.462Z,3.03
2019-02-27T09:33:03.476Z,2.20
2019-02-27T09:35:37.754Z,2.50
2019-02-27T09:38:03.053Z,2.27
2019-02-27T09:40:32.164Z,3.57
2019-02-27T09:43:01.490Z,2.90
2019-02-27T09:45:31.538Z,3.50
2019-02-27T09:48:00.823Z,2.63
2019-02-27T09:50:40.892Z,3.57
2019-02-27T09:53:10.014Z,3.40
2019-02-27T09:55:39.019Z,4.50
2019-02-27T09:58:11.033Z,5.23
2019-02-27T10:00:41.540Z,6.10
2019-02-27T10:03:10.598Z,6.93
2019-02-27T10:05:40.851Z,6.00
2019-02-27T10:08:10.546Z,7.90
2019-02-27T10:10:39.547Z,8.80
2019-02-27T10:13:08.677Z,9.77
2019-02-27T10:15:38.015Z,9.03
2019-02-27T10:18:07.014Z,9.00
2019-02-27T10:20:37.317Z,8.20
2019-02-27T10:23:06.765Z,8.83
2019-02-27T10:25:35.802Z,9.23
2019-02-27T10:28:04.942Z,9.47
2019-02-27T10:30:34.051Z,9.40
2019-02-27T10:33:03.540Z,9.87
2019-02-27T10:35:34.793Z,9.93
2019-02-27T10:38:03.585Z,9.27
2019-02-27T10:40:32.713Z,11.87
2019-02-27T10:43:02.159Z,10.70
2019-02-27T10:45:31.267Z,9.60
2019-02-27T10:48:00.194Z,9.40
2019-02-27T10:50:29.164Z,9.87
2019-02-27T10:52:58.019Z,8.10
2019-02-27T10:55:27.241Z,7.93
2019-02-27T10:57:56.536Z,8.10
2019-02-27T11:00:32.289Z,8.27
2019-02-27T11:03:01.309Z,7.00
2019-02-27T11:05:31.211Z,7.80
2019-02-27T11:08:00.214Z,7.17
2019-02-27T11:10:29.394Z,7.60
2019-02-27T11:12:58.590Z,7.70
2019-02-27T11:15:27.590Z,7.80
2019-02-27T11:17:56.686Z,8.67
2019-02-27T11:20:25.999Z,8.80
2019-02-27T11:22:55.063Z,7.60
2019-02-27T11:25:24.453Z,7.73
2019-02-27T11:27:53.458Z,7.50
2019-02-27T11:30:24.920Z,7.00
2019-02-27T11:32:56.853Z,7.70
2019-02-27T11:35:25.166Z,8.03
2019-02-27T11:37:54.945Z,7.30
2019-02-27T11:40:24.196Z,7.67
2019-02-27T11:42:53.188Z,8.10
2019-02-27T11:45:24.721Z,9.00
2019-02-27T11:47:53.134Z,8.57
2019-02-27T11:50:22.445Z,9.53
2019-02-27T11:52:51.654Z,8.93
2019-02-27T11:55:20.704Z,8.73
2019-02-27T11:57:49.701Z,9.70
2019-02-27T12:00:23.253Z,10.83
2019-02-27T12:02:52.269Z,9.07
2019-02-27T12:05:21.204Z,9.00
2019-02-27T12:07:51.225Z,9.20
2019-02-27T12:10:22.046Z,8.30
2019-02-27T12:12:51.382Z,9.33
2019-02-27T12:15:20.631Z,8.93
2019-02-27T12:17:49.735Z,10.00
2019-02-27T12:20:20.114Z,10.53
2019-02-27T12:22:49.506Z,10.63
2019-02-27T12:25:19.122Z,10.93
2019-02-27T12:27:50.033Z,10.87
2019-02-27T12:30:19.649Z,9.93
2019-02-27T12:32:48.849Z,10.00
2019-02-27T12:35:22.897Z,10.30
2019-02-27T12:37:51.893Z,9.47
2019-02-27T12:40:24.938Z,10.80
2019-02-27T12:42:52.271Z,11.00
2019-02-27T12:45:22.356Z,10.07
2019-02-27T12:47:51.699Z,9.77
2019-02-27T12:50:21.737Z,9.10
2019-02-27T12:52:51.051Z,9.47
2019-02-27T12:55:20.670Z,9.77
2019-02-27T12:57:52.390Z,9.10
2019-02-27T13:00:23.587Z,8.90
2019-02-27T13:02:52.679Z,11.00
2019-02-27T13:05:26.425Z,7.73
2019-02-27T13:07:52.418Z,10.07
2019-02-27T13:10:21.966Z,9.90
2019-02-27T13:12:51.886Z,8.90
2019-02-27T13:15:22.685Z,10.30
2019-02-27T13:17:56.146Z,11.53
2019-02-27T13:20:24.149Z,11.63
2019-02-27T13:22:53.155Z,10.13
2019-02-27T13:25:24.131Z,10.40
2019-02-27T13:27:52.887Z,12.23
2019-02-27T13:30:22.110Z,12.13
2019-02-27T13:32:51.368Z,12.17
2019-02-27T13:35:22.964Z,11.97
2019-02-27T13:37:51.189Z,13.87
2019-02-27T13:40:20.401Z,12.40
2019-02-27T13:42:52.396Z,11.63
2019-02-27T13:45:24.440Z,13.77
2019-02-27T13:47:53.442Z,13.03
2019-02-27T13:50:26.407Z,12.67
2019-02-27T13:52:53.579Z,12.73
2019-02-27T13:55:22.829Z,12.37
2019-02-27T13:57:51.911Z,14.17
2019-02-27T14:00:26.501Z,12.07
2019-02-27T14:02:55.555Z,12.30
2019-02-27T14:05:25.070Z,12.90
2019-02-27T14:07:58.512Z,12.07
2019-02-27T14:10:26.306Z,11.97
2019-02-27T14:12:55.314Z,12.37
2019-02-27T14:15:27.260Z,12.43
2019-02-27T14:17:55.438Z,13.00
2019-02-27T14:20:26.946Z,12.97
2019-02-27T14:22:55.215Z,12.17
2019-02-27T14:25:28.575Z,13.63
2019-02-27T14:27:55.761Z,13.07
2019-02-27T14:30:35.646Z,12.83
2019-02-27T14:33:04.068Z,13.17
2019-02-27T14:35:36.393Z,13.80
2019-02-27T14:38:03.990Z,15.27
2019-02-27T14:40:37.728Z,14.83
2019-02-27T14:43:04.335Z,13.77
2019-02-27T14:45:33.349Z,15.80
2019-02-27T14:48:02.345Z,13.90
2019-02-27T14:50:34.588Z,15.70
2019-02-27T14:53:02.631Z,14.90
2019-02-27T14:55:31.865Z,14.03
2019-02-27T14:58:01.474Z,14.47
2019-02-27T15:00:30.974Z,14.70
2019-02-27T15:02:59.986Z,14.70
2019-02-27T15:05:29.089Z,15.50
2019-02-27T15:07:58.195Z,15.80
2019-02-27T15:10:27.507Z,15.23
2019-02-27T15:12:56.443Z,14.13
2019-02-27T15:15:27.606Z,16.13
2019-02-27T15:17:56.951Z,14.87
2019-02-27T15:20:26.478Z,15.23
2019-02-27T15:22:55.497Z,14.63
2019-02-27T15:25:24.521Z,15.20
2019-02-27T15:27:58.315Z,10.67
2019-02-27T15:30:26.138Z,11.60
2019-02-27T15:32:55.141Z,10.03
2019-02-27T15:35:24.149Z,9.97
2019-02-27T15:37:54.284Z,9.10
2019-02-27T15:40:28.361Z,9.20
2019-02-27T15:42:55.142Z,8.50
2019-02-27T15:45:24.258Z,8.03
2019-02-27T15:47:53.253Z,9.10
2019-02-27T15:50:23.645Z,8.23
2019-02-27T15:52:52.697Z,8.10
2019-02-27T15:55:21.691Z,8.13
2019-02-27T15:57:53.686Z,8.13
2019-02-27T16:00:22.906Z,8.40
2019-02-27T16:02:52.592Z,7.47
2019-02-27T16:05:21.584Z,7.20
2019-02-27T16:07:50.755Z,8.77
2019-02-27T16:10:20.973Z,7.87
2019-02-27T16:12:50.007Z,9.73
2019-02-27T16:15:20.270Z,9.80
2019-02-27T16:17:49.624Z,10.53
2019-02-27T16:20:19.130Z,9.17
2019-02-27T16:22:48.186Z,9.10
2019-02-27T16:25:19.975Z,7.73
2019-02-27T16:27:49.205Z,9.10
2019-02-27T16:30:23.960Z,9.10
2019-02-27T16:32:52.895Z,18.60
2019-02-27T16:35:22.085Z,18.30
2019-02-27T16:37:56.303Z,11.10
2019-02-27T16:40:22.141Z,9.00
2019-02-27T16:42:51.242Z,20.07
2019-02-27T16:45:22.655Z,21.43
2019-02-27T16:47:53.997Z,14.37
2019-02-27T16:50:24.608Z,18.67
2019-02-27T16:52:54.267Z,35.67
2019-02-27T16:55:23.881Z,30.73
2019-02-27T16:57:56.520Z,28.23
2019-02-27T17:00:26.637Z,15.93
2019-02-27T17:02:57.092Z,33.93
2019-02-27T17:05:26.234Z,44.43
2019-02-27T17:08:00.527Z,13.20
2019-02-27T17:10:29.336Z,22.30
2019-02-27T17:12:58.531Z,24.60
2019-02-27T17:15:27.559Z,15.17
2019-02-27T17:17:56.674Z,15.50
2019-02-27T17:20:25.680Z,11.50
2019-02-27T17:22:54.812Z,12.80
2019-02-27T17:25:29.042Z,12.13
2019-02-27T17:27:54.626Z,13.60
2019-02-27T17:30:26.544Z,11.07
2019-02-27T17:32:55.646Z,23.37
2019-02-27T17:35:24.587Z,19.17
2019-02-27T17:37:53.662Z,16.00
2019-02-27T17:40:22.667Z,10.57
2019-02-27T17:42:53.576Z,10.53
2019-02-27T17:45:22.481Z,9.53
2019-02-27T17:47:51.491Z,10.77
2019-02-27T17:50:20.699Z,11.70
2019-02-27T17:52:49.821Z,10.90
2019-02-27T17:55:18.859Z,9.50
2019-02-27T17:57:47.883Z,8.83
2019-02-27T18:00:28.198Z,9.00
2019-02-27T18:02:56.602Z,8.40
2019-02-27T18:05:26.231Z,8.90
2019-02-27T18:07:55.390Z,9.20
2019-02-27T18:10:24.413Z,8.30
2019-02-27T18:12:53.405Z,6.87
2019-02-27T18:15:22.463Z,5.60
2019-02-27T18:17:51.461Z,6.57
2019-02-27T18:20:24.364Z,6.60
2019-02-27T18:22:51.214Z,6.87
2019-02-27T18:25:20.194Z,6.20
2019-02-27T18:27:49.192Z,7.10
2019-02-27T18:30:18.825Z,8.00
2019-02-27T18:32:48.641Z,6.17
2019-02-27T18:35:17.677Z,15.30
2019-02-27T18:37:46.704Z,12.37
2019-02-27T18:40:15.802Z,16.60
2019-02-27T18:42:44.762Z,10.37
2019-02-27T18:45:16.172Z,13.83
2019-02-27T18:47:45.317Z,7.07
2019-02-27T18:50:14.741Z,8.90
2019-02-27T18:52:43.873Z,6.90
2019-02-27T18:55:13.188Z,11.57
2019-02-27T18:57:45.680Z,7.43
2019-02-27T19:00:16.745Z,7.63
2019-02-27T19:02:45.710Z,21.63
2019-02-27T19:05:15.040Z,51.83
2019-02-27T19:07:44.072Z,22.73
2019-02-27T19:10:14.959Z,8.63
2019-02-27T19:12:44.379Z,14.97
2019-02-27T19:15:15.661Z,10.90
2019-02-27T19:17:44.661Z,7.23
2019-02-27T19:20:15.042Z,7.00
2019-02-27T19:22:44.393Z,16.33
2019-02-27T19:25:14.017Z,9.13
2019-02-27T19:27:43.505Z,11.17
2019-02-27T19:30:14.840Z,22.00
2019-02-27T19:32:43.842Z,11.77
2019-02-27T19:35:13.024Z,24.80
2019-02-27T19:37:42.075Z,9.47
2019-02-27T19:40:13.441Z,24.20
2019-02-27T19:42:49.449Z,12.80
2019-02-27T19:45:18.741Z,11.93
2019-02-27T19:47:49.654Z,7.70
2019-02-27T19:50:18.918Z,21.27
2019-02-27T19:52:48.018Z,24.77
2019-02-27T19:55:18.498Z,31.00
2019-02-27T19:57:47.554Z,36.40
2019-02-27T20:00:18.603Z,12.53
2019-02-27T20:02:47.613Z,14.53
2019-02-27T20:05:19.085Z,10.63
2019-02-27T20:07:48.244Z,7.10
2019-02-27T20:10:17.424Z,7.23
2019-02-27T20:12:47.747Z,7.33
2019-02-27T20:15:17.602Z,7.83
2019-02-27T20:17:46.873Z,5.93
2019-02-27T20:20:17.663Z,6.57
2019-02-27T20:22:46.765Z,5.90
2019-02-27T20:25:17.866Z,6.27
2019-02-27T20:27:46.584Z,6.30
2019-02-27T20:30:17.269Z,6.43
2019-02-27T20:32:46.734Z,6.33
2019-02-27T20:35:17.205Z,7.70
2019-02-27T20:37:46.582Z,8.23
2019-02-27T20:40:15.947Z,6.57
2019-02-27T20:42:49.980Z,7.00
2019-02-27T20:45:16.327Z,6.50
2019-02-27T20:47:45.358Z,5.43
2019-02-27T20:50:20.965Z,6.30
2019-02-27T20:52:49.546Z,6.07
2019-02-27T20:55:18.683Z,5.93
2019-02-27T20:57:47.705Z,5.50
2019-02-27T21:00:16.785Z,22.70
2019-02-27T21:02:45.838Z,5.90
2019-02-27T21:05:14.942Z,6.10
2019-02-27T21:07:44.817Z,6.80
2019-02-27T21:10:19.914Z,6.60
2019-02-27T21:12:54.064Z,5.00
2019-02-27T21:15:17.497Z,5.47
2019-02-27T21:17:47.514Z,6.80
2019-02-27T21:20:16.728Z,5.83
2019-02-27T21:22:45.711Z,5.00
2019-02-27T21:25:14.901Z,6.03
2019-02-27T21:27:44.944Z,5.13
2019-02-27T21:30:18.850Z,4.70
2019-02-27T21:32:46.335Z,5.90
2019-02-27T21:35:15.682Z,4.37
2019-02-27T21:37:45.630Z,5.10
2019-02-27T21:40:15.335Z,5.37
2019-02-27T21:42:44.352Z,4.27
2019-02-27T21:45:15.190Z,4.07
2019-02-27T21:47:44.109Z,5.00
2019-02-27T21:50:14.952Z,4.93
2019-02-27T21:52:43.956Z,4.37
2019-02-27T21:55:13.774Z,3.77
2019-02-27T21:57:42.877Z,3.43
2019-02-27T22:00:20.821Z,10.83
2019-02-27T22:02:49.909Z,24.70
2019-02-27T22:05:19.779Z,15.53
2019-02-27T22:07:49.054Z,5.10
2019-02-27T22:10:19.493Z,19.33
2019-02-27T22:12:48.833Z,6.33
2019-02-27T22:15:22.863Z,6.27
2019-02-27T22:17:50.933Z,6.37
2019-02-27T22:20:19.942Z,6.57
2019-02-27T22:22:48.965Z,6.07
2019-02-27T22:25:17.969Z,5.70
2019-02-27T22:27:46.978Z,5.03
2019-02-27T22:30:16.891Z,4.30
2019-02-27T22:32:48.134Z,5.50
2019-02-27T22:35:17.020Z,4.37
2019-02-27T22:37:51.110Z,5.53
2019-02-27T22:40:16.939Z,4.93
2019-02-27T22:42:48.420Z,4.40
2019-02-27T22:45:17.903Z,4.53
2019-02-27T22:47:46.897Z,4.70
2019-02-27T22:50:16.354Z,4.13
2019-02-27T22:52:45.355Z,4.67
2019-02-27T22:55:14.907Z,4.20
2019-02-27T22:57:43.822Z,4.47
2019-02-27T23:01:02.439Z,3.73
2019-02-27T23:03:34.126Z,4.47
2019-02-27T23:06:03.702Z,4.43
2019-02-27T23:08:32.721Z,4.30
2019-02-27T23:11:02.981Z,3.80
2019-02-27T23:13:32.830Z,3.47
2019-02-27T23:16:01.842Z,5.60
2019-02-27T23:18:31.485Z,4.47
2019-02-27T23:21:00.807Z,4.57
2019-02-27T23:23:29.825Z,4.87
2019-02-27T23:25:58.815Z,4.07
2019-02-27T23:28:28.113Z,3.60
2019-02-27T23:30:57.074Z,3.60
2019-02-27T23:33:26.057Z,3.73
2019-02-27T23:35:55.057Z,3.00
2019-02-27T23:38:23.923Z,3.10
2019-02-27T23:40:52.913Z,3.30
2019-02-27T23:43:21.904Z,2.93
2019-02-27T23:45:50.929Z,3.70
2019-02-27T23:48:19.837Z,3.87
2019-02-27T23:50:48.849Z,2.30
2019-02-27T23:53:17.844Z,3.10
2019-02-27T23:55:46.863Z,3.33
2019-02-27T23:58:15.773Z,2.90
